KLAX/LAX METAR and TAF weather

Enter ICAO airport designator
Station Type Date Time Source
KLAX METAR 2021/08/02 01:53 UTC NOAA

KLAX 020153Z 25014KT 10SM CLR 20/14 A2999 RMK AO2 SLP152 T02000139


Station Type Date Time Source
KLAX Decoded METAR 2021/08/02 01:53 UTC NOAA

LOS ANGELES INTERNTL AIRPORT, CA, United States (KLAX) 33-56N 118-23W 46M
Aug 01, 2021 - 09:53 PM EDT / 2021.08.02 0153 UTC
Wind: from the WSW (250 degrees) at 16 MPH (14 KT):0
Visibility: 10 mile(s):0
Sky conditions: clear
Temperature: 68.0 F (20.0 C)
Dew Point: 57.0 F (13.9 C)
Relative Humidity: 67%
Pressure (altimeter): 29.99 in. Hg (1015 hPa)
ob: KLAX 020153Z 25014KT 10SM CLR 20/14 A2999 RMK AO2 SLP152 T02000139
cycle: 2

Station Type Date Time Source
KLAX TAF 2021/08/01 21:09 UTC NOAA

TAF
AMD KLAX 012107Z 0121/0224 27013KT P6SM FEW003 FEW120
FM020400 25006KT P6SM SKC
FM021000 VRB03KT 5SM BR SCT007
FM021700 23005KT P6SM SKC
FM022000 26012KT P6SM SKC

Example: see airport list